Terminal Aerodrome Forecast
Issued by NWS

Home | Current Version | Previous Version | Text Only | Print | Product List | Glossary On
Versions: 1 2 3 4 5 6 7 8 9 10 11 12 13 14 15 16 17 18 19 20 21 22 23 24 25
000
FTUS41 KOKX 221900 AAA
TAFSWF
TAF AMD
KSWF 221931Z 2220/2324 02015G22KT P6SM VCSH BKN015
     FM230100 01016G24KT 3SM -RA BR BKN009
     FM230700 36016KT 6SM BR VCSH BKN009
     FM231300 36014G20KT 5SM BR VCSH BKN015
     FM231800 35014G20KT P6SM OVC025
      AMD NOT SKED=

USA.gov is the U.S. government's official web portal to all federal, state and local government web resources and services.